Country
Station

 

Weather  for  The Dalles, The Dalles Municipal Airport  -  United States    United States

  
12 °C (54 °F)
    
 
 

Current METAR for The Dalles, The Dalles Municipal Airport is :

KDLS 161853Z AUTO 06006KT 10SM OVC036 12/06 A3022 RMK AO2 SLP234 T01170056

 

This is a report for The Dalles, The Dalles Municipal Airport - United States.
 
The report was made 10 minutes ago, at 18:53 UTC .
The wind was blowing at a speed of 3.1 meters per second (6.9 miles per hour) from east/northeast (060°).
 
The temperature was 12 °C (54 °F), with a dew-point at 6 °C (43 °F).
The atmospheric pressure was 1023 hPa (30.22 inHg).
The relative humidity was 66.7%.
 
The sky was overcast from a height of 1097 meter (3600 feet)
 
The overall visibility was 16.1 kilometers (10.0 miles).
 

 
 
 
 

Country :   A   B   C   D   E   F   G   H   I   J   K   L   M   N   O   P   Q   R   S   T   U   V   W   Y   Z

 

Site Info  |  Disclaimer  |  Credits  |  Privacy
Contact us  |  Add to favorites
© 2013-2018 METARs - All rights reserved